Time;durP1;ratioP1;P1;durP2;ratioP2;P2;SDS_P1;SDS_P2;PMS_P1;PMS_P2;Temp;Humidity;BMP_temperature;BMP_pressure;BME280_temperature;BME280_humidity;BME280_pressure;Samples;Min_cycle;Max_cycle;Signal;HPM_P1;HPM_P2
2021/12/31 00:00:16;;;;;;;2.53;1.13;;;;;;;-145.69;100.00;72439.25;5056458;28;20199;-75
2021/12/31 00:02:42;;;;;;;2.50;1.30;;;;;;;-145.69;100.00;72429.28;5056256;28;20253;-75
2021/12/31 00:05:10;;;;;;;1.63;1.07;;;;;;;-145.69;100.00;72419.34;5056114;28;20207;-75
2021/12/31 00:07:37;;;;;;;1.73;1.13;;;;;;;-145.69;100.00;72419.34;5056346;28;20199;-75
2021/12/31 00:10:04;;;;;;;1.00;0.90;;;;;;;-145.69;100.00;72423.31;5056200;28;20199;-75
2021/12/31 00:12:34;;;;;;;0.93;0.80;;;;;;;-145.69;100.00;72429.28;5056297;28;20207;-75
2021/12/31 00:15:01;;;;;;;2.63;0.90;;;;;;;-145.69;100.00;72423.31;5046991;28;20219;-75
2021/12/31 00:17:29;;;;;;;3.07;0.90;;;;;;;-145.69;100.00;72417.34;5035951;28;20220;-75
2021/12/31 00:20:02;;;;;;;3.10;1.00;;;;;;;-145.69;100.00;72419.34;5036501;28;20203;-75
2021/12/31 00:22:57;;;;;;;1.60;0.90;;;;;;;-145.69;100.00;72421.34;5036114;28;20208;-75
2021/12/31 00:25:25;;;;;;;1.30;0.83;;;;;;;-145.69;100.00;72429.28;5036044;28;20314;-75
2021/12/31 00:27:52;;;;;;;1.53;1.10;;;;;;;-145.69;100.00;72439.25;5036167;28;20204;-75
2021/12/31 00:30:19;;;;;;;3.17;1.03;;;;;;;-145.69;100.00;72441.25;5036124;28;20269;-74
2021/12/31 00:32:47;;;;;;;1.57;0.97;;;;;;;-145.69;100.00;72441.25;5035873;28;20196;-74
2021/12/31 00:35:13;;;;;;;2.90;0.97;;;;;;;-145.69;100.00;72437.25;5035852;28;20200;-74
2021/12/31 00:37:40;;;;;;;1.20;0.90;;;;;;;-145.69;100.00;72443.22;5035621;28;20230;-74
2021/12/31 00:40:10;;;;;;;2.87;1.47;;;;;;;-145.69;100.00;72449.19;5035956;28;20204;-75
2021/12/31 00:42:39;;;;;;;1.20;0.90;;;;;;;-145.69;100.00;72451.19;5035819;28;20207;-74
2021/12/31 00:45:08;;;;;;;4.03;1.17;;;;;;;-145.69;100.00;72455.16;5035796;28;20200;-75
2021/12/31 00:47:34;;;;;;;1.10;0.90;;;;;;;-145.69;100.00;72455.16;5035680;28;20208;-75
2021/12/31 00:50:02;;;;;;;4.10;1.30;;;;;;;-145.69;100.00;72461.13;5035756;28;20204;-75
2021/12/31 00:52:29;;;;;;;1.23;0.97;;;;;;;-145.69;100.00;72463.13;5043909;28;20238;-75
2021/12/31 00:54:55;;;;;;;2.03;1.00;;;;;;;-145.69;100.00;72467.13;5055295;28;20589;-74
2021/12/31 00:57:22;;;;;;;3.50;1.20;;;;;;;-145.69;100.00;72461.13;5055273;28;20207;-75
2021/12/31 00:59:48;;;;;;;9.20;1.20;;;;;;;-145.69;100.00;72455.16;5055438;28;20200;-75
2021/12/31 01:02:16;;;;;;;2.90;1.10;;;;;;;-145.69;100.00;72465.13;5055278;28;20211;-74
2021/12/31 01:04:43;;;;;;;1.17;1.07;;;;;;;-145.69;100.00;72475.06;5055179;28;20196;-75
2021/12/31 01:07:11;;;;;;;6.87;1.20;;;;;;;-145.69;100.00;72491.00;5055133;28;20582;-74
2021/12/31 01:09:38;;;;;;;2.33;1.23;;;;;;;-145.69;100.00;72498.97;5055311;28;20200;-75
2021/12/31 01:12:07;;;;;;;2.87;1.20;;;;;;;-145.69;100.00;72485.03;5055075;28;20253;-75
2021/12/31 01:14:36;;;;;;;3.03;1.33;;;;;;;-145.69;100.00;72487.00;5055023;28;20203;-74
2021/12/31 01:17:09;;;;;;;1.63;1.27;;;;;;;-145.69;100.00;72512.91;5055088;28;20278;-74
2021/12/31 01:19:46;;;;;;;2.47;1.10;;;;;;;-145.69;100.00;72522.84;5054926;28;20317;-74
2021/12/31 01:22:16;;;;;;;2.97;1.27;;;;;;;-145.69;100.00;72524.84;5055094;28;20206;-75
2021/12/31 01:24:42;;;;;;;1.80;1.20;;;;;;;-145.69;100.00;72528.81;5055026;28;20195;-74
2021/12/31 01:27:10;;;;;;;1.37;1.07;;;;;;;-145.69;100.00;72542.75;5054562;28;20215;-75
2021/12/31 01:29:36;;;;;;;2.70;1.37;;;;;;;-145.69;100.00;72536.78;5054839;28;20203;-74
2021/12/31 01:32:03;;;;;;;3.80;1.00;;;;;;;-145.69;100.00;72540.75;5054609;28;20203;-74
2021/12/31 01:34:29;;;;;;;3.80;1.57;;;;;;;-145.69;100.00;72560.66;5054258;28;20203;-74
2021/12/31 01:36:56;;;;;;;5.00;1.30;;;;;;;-145.69;100.00;72586.53;5054730;28;20199;-74
2021/12/31 01:39:24;;;;;;;1.67;1.10;;;;;;;-145.69;100.00;72604.44;5054597;28;20223;-74
2021/12/31 01:41:50;;;;;;;1.93;1.03;;;;;;;-145.69;100.00;72620.38;5054364;28;20211;-74
2021/12/31 01:44:17;;;;;;;1.20;1.10;;;;;;;-145.69;100.00;72650.22;5054567;28;20206;-75
2021/12/31 01:46:57;;;;;;;2.07;1.20;;;;;;;-145.69;100.00;72648.25;5054377;28;20678;-74
2021/12/31 01:49:27;;;;;;;2.70;1.40;;;;;;;-145.69;100.00;72652.22;5054731;28;20598;-75
2021/12/31 01:51:54;;;;;;;3.10;1.13;;;;;;;-145.69;100.00;72664.16;5054279;28;20227;-75
2021/12/31 01:54:21;;;;;;;1.63;1.20;;;;;;;-145.69;100.00;72701.97;5054144;28;20227;-75
2021/12/31 01:56:50;;;;;;;2.70;1.40;;;;;;;-145.69;100.00;72678.09;5053612;28;20207;-74
2021/12/31 01:59:17;;;;;;;5.20;1.60;;;;;;;-145.69;100.00;72670.13;5054160;28;20230;-74
2021/12/31 02:01:44;;;;;;;3.53;1.70;;;;;;;-145.69;100.00;72696.00;5054007;28;20678;-75
2021/12/31 02:04:10;;;;;;;4.67;1.20;;;;;;;-145.69;100.00;72707.97;5053882;28;20566;-75
2021/12/31 02:06:36;;;;;;;2.10;1.50;;;;;;;-145.69;100.00;72717.91;5054183;28;20211;-75
2021/12/31 02:09:05;;;;;;;2.93;1.50;;;;;;;-145.69;100.00;72719.91;5054123;28;20199;-74
2021/12/31 02:11:31;;;;;;;4.13;1.40;;;;;;;-145.69;100.00;72709.94;5053584;28;20203;-75
2021/12/31 02:14:02;;;;;;;2.20;1.30;;;;;;;-145.69;100.00;72700.00;5054033;28;20200;-75
2021/12/31 02:16:30;;;;;;;2.00;1.40;;;;;;;-145.69;100.00;72707.97;5053917;28;20203;-75
2021/12/31 02:18:56;;;;;;;2.80;1.73;;;;;;;-145.69;100.00;72715.91;5053824;28;20424;-75
2021/12/31 02:21:24;;;;;;;5.77;1.90;;;;;;;-145.69;100.00;72717.91;5053533;28;20650;-74
2021/12/31 02:24:01;;;;;;;3.77;1.30;;;;;;;-145.69;100.00;72737.81;5050826;28;20200;-75
2021/12/31 02:26:28;;;;;;;5.27;1.90;;;;;;;-145.69;100.00;72739.81;5033708;28;20204;-75
2021/12/31 02:28:54;;;;;;;4.77;1.70;;;;;;;-145.69;100.00;72731.84;5033585;28;20204;-74
2021/12/31 02:31:21;;;;;;;3.47;1.37;;;;;;;-145.69;100.00;72731.84;5033759;28;20250;-75
2021/12/31 02:33:47;;;;;;;3.73;1.40;;;;;;;-145.69;100.00;72751.75;5033453;28;20681;-75
2021/12/31 02:36:14;;;;;;;2.33;1.37;;;;;;;-145.69;100.00;72777.63;5033619;28;20207;-75
2021/12/31 02:38:43;;;;;;;2.97;2.00;;;;;;;-145.69;100.00;72735.81;5033243;28;20286;-74
2021/12/31 02:41:10;;;;;;;3.90;1.60;;;;;;;-145.69;100.00;72747.78;5033628;28;20211;-74
2021/12/31 02:43:37;;;;;;;4.70;1.90;;;;;;;-145.69;100.00;72735.81;5033653;28;20212;-74
2021/12/31 02:46:04;;;;;;;7.37;1.63;;;;;;;-145.69;100.00;72749.75;5033439;28;20196;-74
2021/12/31 02:48:30;;;;;;;4.30;1.40;;;;;;;-145.69;100.00;72759.72;5032948;28;20204;-75
2021/12/31 02:51:00;;;;;;;5.27;1.70;;;;;;;-145.69;100.00;72763.69;5052999;28;20326;-75
2021/12/31 02:53:32;;;;;;;4.97;1.70;;;;;;;-145.69;100.00;72759.72;5053339;28;20202;-75
2021/12/31 02:56:03;;;;;;;3.30;1.67;;;;;;;-145.69;100.00;72757.72;5053189;28;20527;-75
2021/12/31 02:58:30;;;;;;;2.03;1.50;;;;;;;-145.69;100.00;72761.69;5053322;28;20614;-75
2021/12/31 03:00:57;;;;;;;3.57;1.60;;;;;;;-145.69;100.00;72763.69;5053113;28;20210;-75
2021/12/31 03:03:24;;;;;;;4.87;1.60;;;;;;;-145.69;100.00;72767.69;5053143;28;20203;-75
2021/12/31 03:05:53;;;;;;;5.10;1.80;;;;;;;-145.69;100.00;72759.72;5053171;28;20282;-74
2021/12/31 03:08:21;;;;;;;2.33;1.23;;;;;;;-145.69;100.00;72765.69;5051995;28;20196;-74
2021/12/31 03:10:48;;;;;;;5.27;2.03;;;;;;;-145.69;100.00;72749.75;5052928;28;20265;-74
2021/12/31 03:13:17;;;;;;;3.20;1.53;;;;;;;-145.69;100.00;72769.66;5052937;28;20207;-74
2021/12/31 03:15:44;;;;;;;3.00;1.40;;;;;;;-145.69;100.00;72773.66;5052842;28;20199;-74
2021/12/31 03:18:12;;;;;;;4.87;1.77;;;;;;;-145.69;100.00;72763.69;5052548;28;20605;-74
2021/12/31 03:20:42;;;;;;;3.20;1.70;;;;;;;-145.69;100.00;72773.66;5052928;28;20208;-74
2021/12/31 03:23:08;;;;;;;2.93;1.47;;;;;;;-145.69;100.00;72763.69;5052406;28;20214;-74
2021/12/31 03:25:35;;;;;;;3.37;1.70;;;;;;;-145.69;100.00;72789.56;5052686;28;20209;-74
2021/12/31 03:28:01;;;;;;;8.00;1.80;;;;;;;-145.69;100.00;72787.56;5052590;28;20443;-74
2021/12/31 03:30:29;;;;;;;8.37;1.80;;;;;;;-145.69;100.00;72785.59;5052655;28;20203;-74
2021/12/31 03:32:56;;;;;;;4.07;1.50;;;;;;;-145.69;100.00;72815.44;5052296;28;20268;-74
2021/12/31 03:35:22;;;;;;;3.43;1.53;;;;;;;-145.69;100.00;72825.41;5052730;28;20203;-74
2021/12/31 03:37:49;;;;;;;3.53;1.50;;;;;;;-145.69;100.00;72815.44;5052816;28;20203;-74
2021/12/31 03:40:16;;;;;;;9.60;1.80;;;;;;;-145.69;100.00;72783.59;5052606;28;20313;-74
2021/12/31 03:42:42;;;;;;;7.73;2.10;;;;;;;-145.69;100.00;72783.59;5052344;28;20199;-75
2021/12/31 03:45:11;;;;;;;2.80;1.43;;;;;;;-145.69;100.00;72775.63;5052459;28;20662;-75
2021/12/31 03:47:39;;;;;;;5.47;1.80;;;;;;;-145.69;100.00;72729.84;5052748;28;20223;-74
2021/12/31 03:50:06;;;;;;;5.97;2.00;;;;;;;-145.69;100.00;72717.91;5052633;28;20203;-73
2021/12/31 03:52:36;;;;;;;3.73;1.93;;;;;;;-145.69;100.00;72721.88;5052252;28;20714;-75
2021/12/31 03:55:02;;;;;;;6.63;2.10;;;;;;;-145.69;100.00;72735.81;5052744;28;20203;-74
2021/12/31 03:57:29;;;;;;;5.33;1.50;;;;;;;-145.69;100.00;72753.75;5052401;28;20204;-75
2021/12/31 03:59:55;;;;;;;5.70;1.70;;;;;;;-145.69;100.00;72751.75;5052323;28;20273;-75
2021/12/31 04:02:22;;;;;;;4.03;1.70;;;;;;;-145.69;100.00;72763.69;5052518;28;20266;-74
2021/12/31 04:04:49;;;;;;;3.30;1.90;;;;;;;-145.69;100.00;72763.69;5052318;28;20605;-73
2021/12/31 04:07:16;;;;;;;4.27;1.70;;;;;;;-145.69;100.00;72735.81;5052498;28;20203;-74
2021/12/31 04:09:42;;;;;;;8.13;2.10;;;;;;;-145.69;100.00;72707.97;5052434;28;20199;-74
2021/12/31 04:12:09;;;;;;;6.10;2.07;;;;;;;-145.69;100.00;72719.91;5052344;28;20204;-74
2021/12/31 04:14:36;;;;;;;4.57;1.70;;;;;;;-145.69;100.00;72715.91;5052572;28;20559;-74
2021/12/31 04:17:02;;;;;;;4.47;1.80;;;;;;;-145.69;100.00;72715.91;5052356;28;20195;-74
2021/12/31 04:19:30;;;;;;;6.50;2.10;;;;;;;-145.69;100.00;72703.97;5052893;28;20705;-74
2021/12/31 04:21:58;;;;;;;3.77;1.53;;;;;;;-145.69;100.00;72731.84;5055915;28;20650;-74
2021/12/31 04:24:40;;;;;;;2.20;1.33;;;;;;;-145.69;100.00;72719.91;5055961;28;20691;-74
2021/12/31 04:27:06;;;;;;;6.00;1.63;;;;;;;-145.69;100.00;72713.94;5055715;28;20203;-75
2021/12/31 04:29:34;;;;;;;3.43;1.37;;;;;;;-145.69;100.00;72711.94;5056010;28;20593;-74
2021/12/31 04:32:01;;;;;;;5.80;1.60;;;;;;;-145.69;100.00;72723.88;5055226;28;20203;-74
2021/12/31 04:34:28;;;;;;;2.93;1.40;;;;;;;-145.69;100.00;72751.75;5037659;28;20235;-74
2021/12/31 04:36:54;;;;;;;2.10;1.30;;;;;;;-145.69;100.00;72773.66;5035605;28;20559;-74
2021/12/31 04:39:22;;;;;;;5.13;1.80;;;;;;;-145.69;100.00;72713.94;5035561;28;20232;-74
2021/12/31 04:41:49;;;;;;;5.17;1.40;;;;;;;-145.69;100.00;72751.75;5035763;28;20200;-75
2021/12/31 04:44:15;;;;;;;5.50;1.80;;;;;;;-145.69;100.00;72795.53;5035722;28;20212;-74
2021/12/31 04:46:42;;;;;;;2.70;1.30;;;;;;;-145.69;100.00;72817.44;5035449;28;20265;-74
2021/12/31 04:49:08;;;;;;;1.93;1.20;;;;;;;-145.69;100.00;72841.31;5035631;28;20212;-74
2021/12/31 04:51:35;;;;;;;1.60;1.20;;;;;;;-145.69;100.00;72817.44;5036110;28;20566;-74
2021/12/31 04:54:02;;;;;;;2.70;1.27;;;;;;;-145.69;100.00;72819.44;5055400;28;20254;-74
2021/12/31 04:56:29;;;;;;;2.87;1.70;;;;;;;-145.69;100.00;72799.53;5055581;28;20210;-75
2021/12/31 04:58:56;;;;;;;2.00;1.20;;;;;;;-145.69;100.00;72841.31;5055380;28;20234;-74
2021/12/31 05:01:22;;;;;;;2.57;1.20;;;;;;;-145.69;100.00;72807.47;5055461;28;20233;-75
2021/12/31 05:03:49;;;;;;;7.10;1.40;;;;;;;-145.69;100.00;72809.47;5054929;28;20203;-75
2021/12/31 05:06:16;;;;;;;8.73;1.20;;;;;;;-145.69;100.00;72843.31;5055267;28;20210;-74
2021/12/31 05:08:42;;;;;;;4.23;1.20;;;;;;;-145.69;100.00;72851.28;5055165;28;21055;-74
2021/12/31 05:11:09;;;;;;;1.60;1.20;;;;;;;-145.69;100.00;72851.28;5054939;28;20203;-74
2021/12/31 05:13:37;;;;;;;2.20;1.23;;;;;;;-145.69;100.00;72803.50;5054962;28;20548;-74
2021/12/31 05:16:06;;;;;;;3.13;1.43;;;;;;;-145.69;100.00;72803.50;5054635;28;20203;-75
2021/12/31 05:18:32;;;;;;;2.87;1.00;;;;;;;-145.69;100.00;72817.44;5054406;28;20286;-74
2021/12/31 05:20:59;;;;;;;3.93;1.70;;;;;;;-145.69;100.00;72791.56;5054790;28;20590;-75
2021/12/31 05:23:25;;;;;;;3.77;1.73;;;;;;;-145.69;100.00;72779.63;5054863;28;20203;-75
2021/12/31 05:25:52;;;;;;;6.73;1.80;;;;;;;-145.69;100.00;72763.69;5054983;28;20200;-74
2021/12/31 05:28:18;;;;;;;3.77;2.00;;;;;;;-145.69;100.00;72739.81;5054544;28;20203;-74
2021/12/31 05:30:46;;;;;;;3.40;2.00;;;;;;;-145.69;100.00;72757.72;5053947;28;20211;-75
2021/12/31 05:33:12;;;;;;;4.13;1.83;;;;;;;-145.69;100.00;72753.75;5054623;28;20200;-75
2021/12/31 05:35:39;;;;;;;5.03;1.80;;;;;;;-145.69;100.00;72771.66;5054550;28;20556;-75
2021/12/31 05:38:05;;;;;;;5.20;1.87;;;;;;;-145.69;100.00;72787.56;5054878;28;20203;-74
2021/12/31 05:40:32;;;;;;;7.97;1.97;;;;;;;-145.69;100.00;72747.78;5054623;28;20227;-74
2021/12/31 05:42:58;;;;;;;5.67;1.90;;;;;;;-145.69;100.00;72755.72;5054521;28;20210;-75
2021/12/31 05:45:25;;;;;;;4.00;1.90;;;;;;;-145.69;100.00;72761.69;5054510;28;20210;-74
2021/12/31 05:47:53;;;;;;;7.33;2.00;;;;;;;-145.69;100.00;72785.59;5054258;28;20199;-75
2021/12/31 05:50:28;;;;;;;3.90;1.63;;;;;;;-145.69;100.00;72833.38;5054375;28;20230;-74
2021/12/31 05:52:54;;;;;;;1.97;1.40;;;;;;;-145.69;100.00;72859.25;5053811;28;20269;-74
2021/12/31 05:55:21;;;;;;;4.40;1.67;;;;;;;-145.69;100.00;72857.25;5054474;28;20207;-74
2021/12/31 05:57:49;;;;;;;2.50;1.30;;;;;;;-145.69;100.00;72871.19;5054287;28;20218;-75
2021/12/31 06:00:17;;;;;;;7.60;2.20;;;;;;;-145.69;100.00;72863.22;5054118;28;20310;-75
2021/12/31 06:02:43;;;;;;;4.77;2.10;;;;;;;-145.69;100.00;72883.13;5053937;28;20249;-74
2021/12/31 06:05:11;;;;;;;3.53;1.70;;;;;;;-145.69;100.00;72895.06;5054097;28;20257;-75
2021/12/31 06:07:38;;;;;;;3.57;1.60;;;;;;;-145.69;100.00;72913.00;5053948;28;20226;-75
2021/12/31 06:10:05;;;;;;;2.83;1.33;;;;;;;-145.69;100.00;72942.84;5053840;28;20204;-74
2021/12/31 06:12:32;;;;;;;6.20;2.23;;;;;;;-145.69;100.00;72956.78;5054039;28;20199;-74
2021/12/31 06:15:02;;;;;;;4.70;1.70;;;;;;;-145.69;100.00;72930.91;5053894;28;20211;-75
2021/12/31 06:17:28;;;;;;;5.40;2.13;;;;;;;-145.69;100.00;72887.09;5053717;28;20215;-74
2021/12/31 06:19:55;;;;;;;7.10;2.20;;;;;;;-145.69;100.00;72897.06;5053252;28;20720;-74
2021/12/31 06:22:23;;;;;;;4.97;2.07;;;;;;;-145.69;100.00;72926.91;5053924;28;20199;-74
2021/12/31 06:24:50;;;;;;;3.87;1.80;;;;;;;-145.69;100.00;72946.81;5053846;28;20199;-75
2021/12/31 06:27:17;;;;;;;7.00;2.87;;;;;;;-145.69;100.00;72938.88;5053638;28;20256;-75
2021/12/31 06:29:43;;;;;;;11.47;2.80;;;;;;;-145.69;100.00;72885.13;5053490;28;20654;-75
2021/12/31 06:32:10;;;;;;;8.57;3.07;;;;;;;-145.69;100.00;72905.03;5053843;28;20203;-74
2021/12/31 06:34:36;;;;;;;9.37;3.43;;;;;;;-145.69;100.00;72897.06;5051219;28;20563;-75
2021/12/31 06:37:03;;;;;;;7.33;2.90;;;;;;;-145.69;100.00;72893.09;5033495;28;20200;-74
2021/12/31 06:39:31;;;;;;;10.43;2.90;;;;;;;-145.69;100.00;72907.00;5033602;28;20228;-74
2021/12/31 06:41:57;;;;;;;11.03;4.50;;;;;;;-145.69;100.00;72893.09;5032216;28;20447;-74
2021/12/31 06:44:24;;;;;;;8.97;3.40;;;;;;;-145.69;100.00;72907.00;5033393;28;20216;-74
2021/12/31 06:46:50;;;;;;;13.87;3.90;;;;;;;-145.69;100.00;72895.06;5033292;28;20204;-74
2021/12/31 06:49:17;;;;;;;16.30;4.97;;;;;;;-145.69;100.00;72843.31;5033431;28;20196;-75
2021/12/31 06:51:43;;;;;;;16.53;5.30;;;;;;;-145.69;100.00;72835.34;5035217;28;20726;-74
2021/12/31 06:54:09;;;;;;;18.40;5.83;;;;;;;-145.69;100.00;72805.50;5053346;28;20200;-74
2021/12/31 06:56:37;;;;;;;25.10;6.03;;;;;;;-145.69;100.00;72763.69;5053077;28;20230;-74
2021/12/31 06:59:04;;;;;;;30.87;7.13;;;;;;;-145.69;100.00;72751.75;5052658;28;20206;-74
2021/12/31 07:01:30;;;;;;;19.00;5.30;;;;;;;-145.69;100.00;72767.69;5053310;28;20234;-75
2021/12/31 07:03:59;;;;;;;23.30;6.17;;;;;;;-145.69;100.00;72775.63;5053082;28;20702;-75
2021/12/31 07:06:26;;;;;;;25.30;6.37;;;;;;;-145.69;100.00;72783.59;5052763;28;20199;-75
2021/12/31 07:08:52;;;;;;;23.60;6.30;;;;;;;-145.69;100.00;72787.56;5052985;28;20206;-75
2021/12/31 07:11:21;;;;;;;35.27;7.77;;;;;;;-145.69;100.00;72739.81;5052860;28;20697;-75
2021/12/31 07:13:50;;;;;;;41.23;8.83;;;;;;;-145.69;100.00;72719.91;5052682;28;20206;-75
2021/12/31 07:16:17;;;;;;;29.77;7.07;;;;;;;-145.69;100.00;72741.78;5052769;28;20668;-75
2021/12/31 07:18:43;;;;;;;26.43;7.50;;;;;;;-145.69;100.00;72763.69;5053012;28;20199;-74
2021/12/31 07:21:10;;;;;;;28.00;7.33;;;;;;;-145.69;100.00;72789.56;5052333;28;20227;-74
2021/12/31 07:23:37;;;;;;;35.33;8.93;;;;;;;-145.69;100.00;72747.78;5052882;28;20210;-75
2021/12/31 07:26:06;;;;;;;45.60;9.93;;;;;;;-145.69;100.00;72751.75;5052756;28;20207;-75
2021/12/31 07:28:32;;;;;;;41.97;8.90;;;;;;;-145.69;100.00;72743.78;5052823;28;20195;-74
2021/12/31 07:31:00;;;;;;;66.05;15.95;;;;;;;-145.69;100.00;72727.88;5051869;28;20530;-75
2021/12/31 07:33:28;;;;;;;41.43;11.23;;;;;;;-145.69;100.00;72727.88;5052335;28;20654;-74
2021/12/31 07:35:54;;;;;;;48.50;12.20;;;;;;;-145.69;100.00;72727.88;5052664;28;20245;-75
2021/12/31 07:38:25;;;;;;;58.00;12.17;;;;;;;-145.69;100.00;72705.97;5052732;28;20199;-74
2021/12/31 07:40:52;;;;;;;46.43;11.73;;;;;;;-145.69;100.00;72711.94;5052458;28;20220;-75
2021/12/31 07:43:20;;;;;;;50.50;11.07;;;;;;;-145.69;100.00;72727.88;5052900;28;20268;-74
2021/12/31 07:45:46;;;;;;;47.63;10.73;;;;;;;-145.69;100.00;72735.81;5052430;28;20199;-75
2021/12/31 07:48:14;;;;;;;45.33;11.23;;;;;;;-145.69;100.00;72739.81;5052537;28;20701;-75
2021/12/31 07:50:40;;;;;;;39.40;8.60;;;;;;;-145.69;100.00;72755.72;5052139;28;20248;-74
2021/12/31 07:53:07;;;;;;;30.77;9.10;;;;;;;-145.69;100.00;72773.66;5052316;28;20200;-74
2021/12/31 07:55:35;;;;;;;31.80;8.07;;;;;;;-145.69;100.00;72777.63;5041404;28;20606;-75
2021/12/31 07:58:02;;;;;;;25.53;6.97;;;;;;;-145.69;100.00;72789.56;5036512;28;20299;-74
2021/12/31 08:00:29;;;;;;;25.27;6.37;;;;;;;-145.69;100.00;72815.44;5036525;28;20235;-75
2021/12/31 08:02:56;;;;;;;35.50;8.17;;;;;;;-145.69;100.00;72801.50;5036399;28;20208;-75
2021/12/31 08:05:24;;;;;;;31.60;8.30;;;;;;;-145.69;100.00;72793.56;5036523;28;20296;-75
2021/12/31 08:07:50;;;;;;;36.10;9.07;;;;;;;-145.69;100.00;72767.69;5036270;28;20209;-75
2021/12/31 08:10:17;;;;;;;53.05;14.30;;;;;;;-145.69;100.00;72751.75;5035278;28;20504;-74
2021/12/31 08:12:43;;;;;;;46.33;11.30;;;;;;;-145.69;100.00;72751.75;5036132;28;20215;-75
2021/12/31 08:15:10;;;;;;;58.27;14.07;;;;;;;-145.69;100.00;72715.91;5036254;28;20227;-75
2021/12/31 08:17:37;;;;;;;59.57;13.13;;;;;;;-145.69;100.00;72707.97;5035759;28;20273;-74
2021/12/31 08:20:04;;;;;;;54.57;13.40;;;;;;;-145.69;100.00;72694.03;5035955;28;20227;-74
2021/12/31 08:22:32;;;;;;;61.80;13.03;;;;;;;-145.69;100.00;72700.00;5036043;28;20196;-75
2021/12/31 08:25:01;;;;;;;50.53;11.30;;;;;;;-145.69;100.00;72721.88;5036059;28;20196;-75
2021/12/31 08:27:27;;;;;;;33.83;9.57;;;;;;;-145.69;100.00;72759.72;5038734;28;20207;-75
2021/12/31 08:29:54;;;;;;;27.90;8.00;;;;;;;-145.69;100.00;72767.69;5036163;28;20223;-74
2021/12/31 08:32:20;;;;;;;36.77;9.53;;;;;;;-145.69;100.00;72765.69;5035780;28;20227;-74
2021/12/31 08:34:47;;;;;;;26.47;8.13;;;;;;;-145.69;100.00;72763.69;5035790;28;20258;-75
2021/12/31 08:37:13;;;;;;;36.47;9.23;;;;;;;-145.69;100.00;72755.72;5035757;28;20203;-75
2021/12/31 08:39:41;;;;;;;38.30;8.90;;;;;;;-145.69;100.00;72755.72;5035704;28;20204;-75
2021/12/31 08:42:07;;;;;;;34.17;8.93;;;;;;;-145.69;100.00;72755.72;5035878;28;20228;-75
2021/12/31 08:44:34;;;;;;;39.43;9.23;;;;;;;-145.69;100.00;72743.78;5035827;28;20301;-75
2021/12/31 08:47:00;;;;;;;48.73;10.70;;;;;;;-145.69;100.00;72731.84;5035687;28;20713;-75
2021/12/31 08:49:27;;;;;;;44.27;10.33;;;;;;;-145.69;100.00;72737.81;5035353;28;20206;-75
2021/12/31 08:51:53;;;;;;;50.10;11.47;;;;;;;-145.69;100.00;72731.84;5038854;28;20227;-75
2021/12/31 08:54:20;;;;;;;61.33;13.27;;;;;;;-145.69;100.00;72700.00;5055457;28;20677;-75
2021/12/31 08:56:48;;;;;;;51.10;12.93;;;;;;;-145.69;100.00;72700.00;5055023;28;20333;-74
2021/12/31 08:59:15;;;;;;;50.40;11.83;;;;;;;-145.69;100.00;72701.97;5055444;28;20249;-75
2021/12/31 09:01:42;;;;;;;42.37;10.97;;;;;;;-145.69;100.00;72703.97;5055269;28;20248;-74
2021/12/31 09:04:08;;;;;;;29.57;9.07;;;;;;;-145.69;100.00;72692.03;5055451;28;20208;-74
2021/12/31 09:06:36;;;;;;;37.67;9.63;;;;;;;-145.69;100.00;72694.03;5054101;28;20207;-74
2021/12/31 09:09:03;;;;;;;24.93;7.30;;;;;;;-145.69;100.00;72698.00;5054975;28;20210;-75
2021/12/31 09:11:30;;;;;;;24.27;7.07;;;;;;;-145.69;100.00;72684.06;5055353;28;20207;-75
2021/12/31 09:13:58;;;;;;;14.80;6.07;;;;;;;-145.69;100.00;72676.09;5055145;28;20199;-74
2021/12/31 09:16:25;;;;;;;26.70;7.70;;;;;;;-145.69;100.00;72660.19;5054921;28;20206;-75
2021/12/31 09:18:51;;;;;;;27.17;8.00;;;;;;;-145.69;100.00;72648.25;5055328;28;20203;-75
2021/12/31 09:21:18;;;;;;;17.77;7.03;;;;;;;-145.69;100.00;72652.22;5054726;28;20234;-75
2021/12/31 09:23:44;;;;;;;23.07;7.47;;;;;;;-145.69;100.00;72636.31;5055085;28;20286;-75
2021/12/31 09:26:11;;;;;;;17.60;5.80;;;;;;;-145.69;100.00;72632.31;5054821;28;20235;-74
2021/12/31 09:28:37;;;;;;;16.00;6.07;;;;;;;-145.69;100.00;72628.34;5054926;28;20230;-75
2021/12/31 09:31:07;;;;;;;15.43;5.77;;;;;;;-145.69;100.00;72624.34;5055142;28;20199;-76
2021/12/31 09:33:34;;;;;;;14.70;4.97;;;;;;;-145.69;100.00;72614.41;5056016;28;20686;-75
2021/12/31 09:36:00;;;;;;;17.60;5.20;;;;;;;-145.69;100.00;72612.41;5054806;28;20570;-76
2021/12/31 09:38:27;;;;;;;15.60;5.70;;;;;;;-145.69;100.00;72606.44;5054829;28;20203;-76
2021/12/31 09:40:54;;;;;;;16.77;5.90;;;;;;;-145.69;100.00;72596.50;5054181;28;20262;-75
2021/12/31 09:43:21;;;;;;;14.47;5.53;;;;;;;-145.69;100.00;72594.50;5054745;28;20646;-75
2021/12/31 09:45:50;;;;;;;22.17;6.90;;;;;;;-145.69;100.00;72584.56;5054607;28;20196;-75
2021/12/31 09:48:20;;;;;;;19.73;7.23;;;;;;;-145.69;100.00;72564.66;5054378;28;20206;-75
2021/12/31 09:50:49;;;;;;;18.77;6.93;;;;;;;-145.69;100.00;72552.69;5054730;28;20231;-75
2021/12/31 09:53:17;;;;;;;22.60;7.03;;;;;;;-145.69;100.00;72548.72;5054307;28;20199;-75
2021/12/31 09:55:45;;;;;;;23.23;8.27;;;;;;;-145.69;100.00;72528.81;5054380;28;20200;-76
2021/12/31 09:58:13;;;;;;;21.73;7.63;;;;;;;-145.69;100.00;72516.88;5053580;28;20199;-75
2021/12/31 10:00:42;;;;;;;32.80;9.03;;;;;;;-145.69;100.00;72489.00;5053280;28;20211;-75
2021/12/31 10:03:10;;;;;;;31.93;9.87;;;;;;;-145.69;100.00;72471.09;5054150;28;20290;-76
2021/12/31 10:05:42;;;;;;;27.83;9.00;;;;;;;-145.69;100.00;72467.13;5054347;28;20233;-75
2021/12/31 10:08:20;;;;;;;20.20;8.20;;;;;;;-145.69;100.00;72447.22;5053780;28;20200;-75
2021/12/31 10:11:05;;;;;;;14.23;6.70;;;;;;;-145.69;100.00;72437.25;5054071;28;20212;-75
2021/12/31 10:13:32;;;;;;;16.67;6.40;;;;;;;-145.69;100.00;72423.31;5053970;28;20199;-76
2021/12/31 10:15:59;;;;;;;11.90;5.43;;;;;;;-145.69;100.00;72409.38;5054028;28;20200;-75
2021/12/31 10:18:30;;;;;;;10.53;4.70;;;;;;;-145.69;100.00;72405.41;5053658;28;20200;-75
2021/12/31 10:20:58;;;;;;;10.30;3.80;;;;;;;-145.69;100.00;72413.38;5053798;28;20223;-75
2021/12/31 10:23:25;;;;;;;9.20;3.50;;;;;;;-145.69;100.00;72411.38;5053788;28;20601;-76
2021/12/31 10:25:51;;;;;;;9.10;4.03;;;;;;;-145.69;100.00;72393.47;5053760;28;20237;-75
2021/12/31 10:28:18;;;;;;;10.33;4.90;;;;;;;-145.69;100.00;72381.53;5053564;28;20195;-76
2021/12/31 10:30:45;;;;;;;12.57;5.63;;;;;;;-145.69;100.00;72377.53;5053828;28;20302;-77
2021/12/31 10:33:12;;;;;;;18.37;6.00;;;;;;;-145.69;100.00;72357.66;5051531;28;20235;-75
2021/12/31 10:35:41;;;;;;;11.27;5.00;;;;;;;-145.69;100.00;72353.66;5034460;28;20223;-76
2021/12/31 10:38:11;;;;;;;15.20;6.30;;;;;;;-145.69;100.00;72345.69;5033967;28;20208;-75
2021/12/31 10:40:40;;;;;;;13.63;5.87;;;;;;;-145.69;100.00;72337.75;5033804;28;20227;-76
2021/12/31 10:43:18;;;;;;;15.67;6.13;;;;;;;-145.69;100.00;72313.84;5033762;28;20287;-78
2021/12/31 10:45:58;;;;;;;12.23;6.03;;;;;;;-145.69;100.00;72299.91;5033741;28;20200;-75
2021/12/31 10:48:38;;;;;;;10.43;4.90;;;;;;;-145.69;100.00;72286.00;5033416;28;20207;-76
2021/12/31 10:51:05;;;;;;;10.90;3.90;;;;;;;-145.69;100.00;72268.06;5033655;28;20262;-76
2021/12/31 10:53:34;;;;;;;6.57;3.13;;;;;;;-145.69;100.00;72268.06;5033622;28;20218;-75
2021/12/31 10:56:07;;;;;;;5.30;2.53;;;;;;;-145.69;100.00;72272.06;5038728;28;20192;-76
2021/12/31 10:58:34;;;;;;;5.83;3.00;;;;;;;-145.69;100.00;72272.06;5053180;28;20285;-75
2021/12/31 11:01:04;;;;;;;6.40;3.33;;;;;;;-145.69;100.00;72238.22;5053413;28;20234;-76
2021/12/31 11:03:31;;;;;;;7.50;3.83;;;;;;;-145.69;100.00;72218.31;5053530;28;20575;-76
2021/12/31 11:05:58;;;;;;;5.70;3.67;;;;;;;-145.69;100.00;72194.44;5055413;28;20199;-75
2021/12/31 11:08:25;;;;;;;5.60;2.57;;;;;;;-145.69;100.00;72190.47;5053138;28;20597;-75